createdAt,value
2022-09-11T00:02:40.645Z,15.00
2022-09-11T00:05:29.533Z,15.00
2022-09-11T00:08:19.946Z,15.00
2022-09-11T00:11:08.867Z,15.00
2022-09-11T00:13:56.513Z,15.00
2022-09-11T00:16:45.953Z,15.00
2022-09-11T00:19:33.189Z,15.00
2022-09-11T00:22:22.003Z,15.00
2022-09-11T00:25:10.038Z,14.90
2022-09-11T00:27:57.274Z,14.70
2022-09-11T00:30:45.339Z,14.60
2022-09-11T00:33:33.509Z,14.80
2022-09-11T00:36:22.799Z,14.80
2022-09-11T00:39:14.198Z,14.70
2022-09-11T00:42:02.110Z,14.70
2022-09-11T00:45:02.458Z,14.70
2022-09-11T00:47:51.514Z,14.80
2022-09-11T00:50:38.541Z,14.80
2022-09-11T00:53:30.284Z,14.80
2022-09-11T00:56:19.946Z,14.80
2022-09-11T00:59:07.773Z,14.80
2022-09-11T01:01:55.386Z,14.80
2022-09-11T01:04:42.531Z,14.80
2022-09-11T01:07:31.267Z,14.90
2022-09-11T01:10:19.087Z,14.90
2022-09-11T01:13:17.523Z,14.80
2022-09-11T01:16:14.160Z,14.90
2022-09-11T01:19:08.658Z,14.90
2022-09-11T01:22:18.226Z,14.90
2022-09-11T01:25:19.305Z,14.90
2022-09-11T01:28:11.559Z,14.90
2022-09-11T01:31:05.021Z,14.90
2022-09-11T01:33:59.538Z,14.80
2022-09-11T01:36:53.695Z,14.80
2022-09-11T01:39:44.797Z,14.80
2022-09-11T01:42:38.021Z,14.90
2022-09-11T01:45:28.002Z,14.90
2022-09-11T01:48:19.376Z,14.90
2022-09-11T01:51:08.313Z,14.90
2022-09-11T01:53:57.222Z,14.90
2022-09-11T01:56:48.578Z,14.80
2022-09-11T01:59:42.108Z,14.80
2022-09-11T02:02:36.681Z,14.80
2022-09-11T02:05:28.938Z,14.70
2022-09-11T02:08:19.577Z,14.70
2022-09-11T02:11:09.134Z,14.70
2022-09-11T02:14:05.335Z,14.60
2022-09-11T02:17:01.917Z,14.60
2022-09-11T02:19:50.550Z,14.60
2022-09-11T02:22:38.316Z,14.60
2022-09-11T02:25:25.562Z,14.50
2022-09-11T02:28:16.751Z,14.60
2022-09-11T02:31:04.142Z,14.60
2022-09-11T02:33:52.257Z,14.50
2022-09-11T02:36:57.275Z,14.50
2022-09-11T02:40:27.082Z,14.50
2022-09-11T02:43:32.707Z,14.40
2022-09-11T02:46:38.889Z,14.30
2022-09-11T02:49:40.571Z,14.30
2022-09-11T02:52:44.915Z,14.30
2022-09-11T02:55:45.703Z,14.30
2022-09-11T02:58:37.419Z,14.30
2022-09-11T03:01:24.930Z,14.10
2022-09-11T03:04:12.714Z,14.10
2022-09-11T03:07:00.434Z,14.10
2022-09-11T03:09:49.246Z,14.10
2022-09-11T03:12:41.409Z,14.10
2022-09-11T03:15:30.321Z,14.20
2022-09-11T03:18:17.594Z,14.10
2022-09-11T03:21:05.777Z,14.10
2022-09-11T03:23:52.699Z,14.10
2022-09-11T03:26:41.497Z,14.00
2022-09-11T03:29:31.649Z,13.90
2022-09-11T03:32:21.139Z,13.90
2022-09-11T03:35:09.445Z,13.90
2022-09-11T03:37:58.001Z,13.90
2022-09-11T03:40:45.329Z,13.90
2022-09-11T03:43:35.097Z,14.00
2022-09-11T03:46:23.742Z,13.90
2022-09-11T03:49:11.121Z,13.90
2022-09-11T03:51:58.983Z,14.00
2022-09-11T03:54:47.613Z,13.80
2022-09-11T03:57:35.130Z,13.90
2022-09-11T04:00:23.764Z,13.90
2022-09-11T04:03:16.757Z,13.80
2022-09-11T04:06:04.989Z,13.80
2022-09-11T04:08:54.157Z,13.80
2022-09-11T04:11:41.393Z,13.70
2022-09-11T04:14:35.654Z,13.70
2022-09-11T04:17:25.417Z,13.60
2022-09-11T04:20:13.932Z,13.60
2022-09-11T04:23:02.943Z,13.70
2022-09-11T04:25:52.357Z,13.70
2022-09-11T04:28:40.090Z,13.60
2022-09-11T04:31:28.342Z,13.50
2022-09-11T04:34:17.874Z,13.50
2022-09-11T04:37:06.064Z,13.50
2022-09-11T04:39:54.167Z,13.50
2022-09-11T04:42:41.899Z,13.50
2022-09-11T04:45:33.587Z,13.40
2022-09-11T04:48:23.171Z,13.40
2022-09-11T04:51:12.343Z,13.50
2022-09-11T04:54:01.126Z,13.50
2022-09-11T04:56:57.933Z,13.50
2022-09-11T04:59:45.137Z,13.50
2022-09-11T05:02:33.644Z,13.50
2022-09-11T05:05:21.323Z,13.60
2022-09-11T05:08:11.485Z,13.60
2022-09-11T05:10:59.978Z,13.70
2022-09-11T05:13:47.505Z,13.70
2022-09-11T05:16:36.034Z,13.80
2022-09-11T05:19:23.527Z,13.80
2022-09-11T05:22:10.801Z,13.90
2022-09-11T05:25:03.503Z,14.00
2022-09-11T05:27:50.717Z,14.10
2022-09-11T05:30:37.804Z,14.10
2022-09-11T05:33:26.225Z,14.10
2022-09-11T05:36:15.190Z,14.20
2022-09-11T05:39:03.630Z,14.30
2022-09-11T05:41:55.251Z,14.30
2022-09-11T05:44:47.179Z,14.30
2022-09-11T05:47:34.486Z,14.30
2022-09-11T05:50:21.895Z,14.30
2022-09-11T05:53:09.239Z,14.30
2022-09-11T05:55:56.684Z,14.30
2022-09-11T05:58:47.137Z,14.30
2022-09-11T06:01:35.463Z,14.30
2022-09-11T06:04:31.432Z,14.40
2022-09-11T06:07:19.963Z,14.30
2022-09-11T06:10:10.145Z,14.30
2022-09-11T06:12:58.002Z,14.50
2022-09-11T06:15:47.443Z,14.50
2022-09-11T06:18:35.035Z,14.50
2022-09-11T06:21:24.579Z,14.50
2022-09-11T06:24:22.577Z,14.50
2022-09-11T06:27:10.080Z,14.50
2022-09-11T06:30:00.930Z,14.50
2022-09-11T06:32:56.505Z,14.60
2022-09-11T06:35:45.801Z,14.70
2022-09-11T06:38:33.513Z,14.70
2022-09-11T06:41:22.244Z,14.70
2022-09-11T06:44:10.265Z,14.80
2022-09-11T06:46:59.327Z,15.00
2022-09-11T06:49:48.941Z,15.00
2022-09-11T06:52:56.286Z,15.10
2022-09-11T06:55:47.684Z,15.20
2022-09-11T06:58:37.197Z,15.20
2022-09-11T07:01:25.267Z,15.30
2022-09-11T07:04:20.048Z,15.20
2022-09-11T07:07:10.554Z,15.20
2022-09-11T07:10:01.065Z,15.20
2022-09-11T07:12:48.589Z,15.20
2022-09-11T07:15:36.146Z,15.20
2022-09-11T07:18:23.367Z,15.30
2022-09-11T07:21:12.221Z,15.20
2022-09-11T07:24:02.262Z,15.30
2022-09-11T07:26:54.803Z,15.30
2022-09-11T07:29:47.926Z,15.40
2022-09-11T07:32:35.314Z,15.40
2022-09-11T07:35:22.657Z,15.40
2022-09-11T07:38:12.931Z,15.50
2022-09-11T07:41:02.710Z,15.50
2022-09-11T07:43:53.776Z,15.50
2022-09-11T07:46:41.497Z,15.60
2022-09-11T07:49:30.641Z,15.70
2022-09-11T07:52:20.553Z,15.90
2022-09-11T07:55:14.530Z,16.20
2022-09-11T07:58:03.181Z,16.80
2022-09-11T08:00:50.354Z,17.00
2022-09-11T08:03:40.314Z,17.20
2022-09-11T08:06:28.601Z,17.30
2022-09-11T08:09:20.188Z,17.50
2022-09-11T08:12:13.828Z,17.40
2022-09-11T08:15:02.572Z,17.40
2022-09-11T08:17:51.933Z,17.30
2022-09-11T08:20:39.197Z,17.20
2022-09-11T08:23:26.493Z,17.20
2022-09-11T08:26:16.229Z,17.40
2022-09-11T08:29:03.304Z,17.40
2022-09-11T08:31:53.694Z,17.40
2022-09-11T08:34:42.689Z,17.40
2022-09-11T08:37:29.642Z,17.40
2022-09-11T08:40:16.992Z,17.50
2022-09-11T08:43:05.742Z,17.50
2022-09-11T08:46:00.161Z,17.50
2022-09-11T08:48:58.109Z,17.20
2022-09-11T08:51:47.191Z,17.30
2022-09-11T08:54:37.945Z,17.30
2022-09-11T08:57:35.045Z,17.20
2022-09-11T09:00:24.954Z,17.20
2022-09-11T09:03:31.668Z,17.10
2022-09-11T09:06:41.615Z,17.00
2022-09-11T09:09:40.325Z,17.10
2022-09-11T09:12:34.071Z,17.20
2022-09-11T09:15:32.548Z,17.30
2022-09-11T09:18:27.979Z,17.50
2022-09-11T09:21:21.846Z,17.70
2022-09-11T09:24:19.380Z,17.80
2022-09-11T09:27:17.039Z,17.80
2022-09-11T09:30:08.010Z,17.80
2022-09-11T09:33:01.677Z,17.90
2022-09-11T09:35:50.273Z,17.80
2022-09-11T09:38:41.332Z,17.80
2022-09-11T09:41:56.827Z,17.90
2022-09-11T09:45:02.351Z,18.10
2022-09-11T09:47:50.361Z,18.00
2022-09-11T09:50:40.629Z,18.10
2022-09-11T09:53:34.413Z,18.20
2022-09-11T09:56:23.679Z,18.10
2022-09-11T09:59:19.482Z,17.90
2022-09-11T10:02:07.869Z,17.60
2022-09-11T10:05:08.621Z,17.70
2022-09-11T10:07:58.050Z,17.80
2022-09-11T10:10:45.053Z,17.70
2022-09-11T10:13:34.201Z,17.90
2022-09-11T10:16:25.224Z,18.20
2022-09-11T10:19:40.599Z,18.40
2022-09-11T10:22:30.801Z,18.50
2022-09-11T10:25:19.709Z,18.40
2022-09-11T10:28:12.789Z,18.10
2022-09-11T10:31:03.152Z,17.80
2022-09-11T10:33:56.459Z,17.80
2022-09-11T10:36:53.922Z,17.70
2022-09-11T10:39:43.014Z,17.50
2022-09-11T10:42:31.732Z,17.60
2022-09-11T10:45:21.937Z,17.70
2022-09-11T10:48:19.227Z,18.00
2022-09-11T10:51:11.791Z,18.40
2022-09-11T10:54:07.488Z,18.70
2022-09-11T10:57:05.452Z,18.80
2022-09-11T11:00:07.624Z,18.90
2022-09-11T11:02:56.967Z,18.80
2022-09-11T11:05:53.843Z,19.30
2022-09-11T11:09:09.096Z,19.40
2022-09-11T11:12:09.710Z,19.40
2022-09-11T11:15:13.647Z,19.20
2022-09-11T11:18:19.718Z,19.00
2022-09-11T11:21:18.191Z,18.70
2022-09-11T11:24:26.893Z,18.60
2022-09-11T11:27:39.821Z,18.50
2022-09-11T11:30:32.241Z,18.40
2022-09-11T11:33:33.786Z,18.40
2022-09-11T11:36:27.092Z,18.40
2022-09-11T11:39:25.055Z,18.50
2022-09-11T11:42:17.129Z,18.50
2022-09-11T11:45:08.943Z,18.50
2022-09-11T11:47:56.633Z,18.90
2022-09-11T11:50:48.086Z,19.10
2022-09-11T11:53:39.945Z,18.90
2022-09-11T11:56:36.052Z,18.80
2022-09-11T11:59:32.073Z,18.80
2022-09-11T12:02:24.704Z,18.90
2022-09-11T12:05:17.135Z,19.10
2022-09-11T12:08:04.695Z,19.10
2022-09-11T12:10:57.206Z,19.30
2022-09-11T12:13:48.793Z,19.20
2022-09-11T12:16:37.720Z,19.20
2022-09-11T12:19:26.156Z,19.20
2022-09-11T12:22:14.404Z,19.30
2022-09-11T12:25:03.308Z,19.50
2022-09-11T12:28:09.203Z,19.70
2022-09-11T12:31:03.325Z,19.40
2022-09-11T12:33:54.461Z,19.40
2022-09-11T12:36:53.782Z,19.40
2022-09-11T12:39:50.941Z,19.40
2022-09-11T12:42:55.142Z,19.30
2022-09-11T12:45:43.688Z,19.30
2022-09-11T12:48:39.329Z,19.30
2022-09-11T12:51:29.969Z,19.30
2022-09-11T12:54:22.833Z,19.40
2022-09-11T12:57:16.888Z,19.40
2022-09-11T13:00:07.992Z,19.40
2022-09-11T13:02:57.522Z,19.30
2022-09-11T13:05:55.220Z,19.30
2022-09-11T13:08:49.903Z,19.30
2022-09-11T13:11:40.193Z,19.30
2022-09-11T13:14:51.604Z,19.20
2022-09-11T13:17:47.176Z,19.10
2022-09-11T13:20:34.201Z,19.20
2022-09-11T13:23:22.687Z,19.30
2022-09-11T13:26:21.390Z,19.20
2022-09-11T13:29:15.099Z,19.30
2022-09-11T13:32:08.265Z,19.20
2022-09-11T13:34:58.701Z,19.10
2022-09-11T13:37:54.386Z,19.00
2022-09-11T13:40:47.021Z,19.00
2022-09-11T13:43:37.832Z,19.10
2022-09-11T13:46:27.888Z,19.00
2022-09-11T13:49:28.488Z,19.10
2022-09-11T13:52:16.343Z,19.30
2022-09-11T13:55:10.587Z,19.40
2022-09-11T13:58:00.867Z,19.50
2022-09-11T14:00:50.178Z,19.30
2022-09-11T14:03:38.248Z,19.30
2022-09-11T14:06:25.326Z,19.50
2022-09-11T14:09:19.423Z,19.80
2022-09-11T14:12:07.464Z,19.80
2022-09-11T14:14:59.494Z,19.80
2022-09-11T14:17:46.905Z,19.80
2022-09-11T14:20:34.405Z,19.90
2022-09-11T14:23:25.152Z,19.80
2022-09-11T14:26:17.697Z,19.80
2022-09-11T14:29:25.978Z,19.70
2022-09-11T14:32:31.620Z,19.80
2022-09-11T14:35:18.419Z,19.70
2022-09-11T14:38:05.578Z,19.70
2022-09-11T14:40:57.167Z,19.60
2022-09-11T14:43:48.872Z,19.70
2022-09-11T14:46:37.058Z,19.60
2022-09-11T14:49:25.572Z,19.40
2022-09-11T14:52:14.367Z,19.30
2022-09-11T14:55:02.169Z,19.20
2022-09-11T14:57:49.582Z,19.10
2022-09-11T15:00:36.895Z,19.10
2022-09-11T15:03:25.259Z,19.10
2022-09-11T15:06:20.490Z,19.20
2022-09-11T15:09:07.666Z,19.30
2022-09-11T15:11:55.043Z,19.40
2022-09-11T15:14:56.670Z,19.40
2022-09-11T15:17:46.115Z,19.40
2022-09-11T15:20:33.331Z,19.40
2022-09-11T15:23:21.973Z,19.30
2022-09-11T15:26:11.818Z,19.30
2022-09-11T15:28:58.931Z,19.30
2022-09-11T15:31:47.262Z,19.30
2022-09-11T15:34:34.725Z,19.20
2022-09-11T15:37:23.591Z,19.10
2022-09-11T15:40:12.955Z,19.10
2022-09-11T15:42:59.988Z,19.00
2022-09-11T15:45:47.298Z,19.00
2022-09-11T15:48:34.592Z,19.00
2022-09-11T15:51:24.592Z,19.00
2022-09-11T15:54:13.505Z,18.90
2022-09-11T15:57:02.175Z,18.90
2022-09-11T15:59:51.561Z,18.80
2022-09-11T16:02:38.753Z,18.90
2022-09-11T16:05:26.054Z,18.90
2022-09-11T16:08:15.277Z,18.90
2022-09-11T16:11:04.987Z,18.80
2022-09-11T16:13:54.909Z,18.80
2022-09-11T16:16:42.166Z,18.70
2022-09-11T16:19:30.872Z,18.60
2022-09-11T16:22:17.987Z,18.60
2022-09-11T16:25:06.100Z,18.60
2022-09-11T16:27:53.423Z,18.60
2022-09-11T16:30:45.677Z,18.60
2022-09-11T16:33:37.635Z,18.50
2022-09-11T16:36:25.276Z,18.40
2022-09-11T16:39:13.794Z,18.40
2022-09-11T16:42:02.079Z,18.30
2022-09-11T16:44:49.771Z,18.40
2022-09-11T16:47:38.111Z,18.30
2022-09-11T16:50:25.496Z,18.30
2022-09-11T16:53:13.876Z,18.20
2022-09-11T16:56:04.554Z,18.20
2022-09-11T16:58:51.708Z,18.20
2022-09-11T17:01:39.935Z,18.20
2022-09-11T17:04:28.674Z,18.30
2022-09-11T17:07:15.682Z,18.20
2022-09-11T17:10:02.713Z,18.20
2022-09-11T17:12:51.004Z,18.10
2022-09-11T17:15:38.077Z,18.10
2022-09-11T17:18:25.433Z,18.00
2022-09-11T17:21:14.492Z,18.00
2022-09-11T17:24:01.862Z,17.90
2022-09-11T17:26:50.655Z,17.90
2022-09-11T17:29:42.425Z,17.90
2022-09-11T17:32:31.534Z,17.90
2022-09-11T17:35:19.739Z,17.90
2022-09-11T17:38:09.299Z,17.90
2022-09-11T17:40:57.755Z,17.80
2022-09-11T17:43:45.318Z,17.70
2022-09-11T17:46:33.496Z,17.60
2022-09-11T17:49:20.948Z,17.60
2022-09-11T17:52:08.293Z,17.60
2022-09-11T17:54:56.953Z,17.60
2022-09-11T17:57:45.406Z,17.60
2022-09-11T18:00:32.465Z,17.60
2022-09-11T18:03:22.754Z,17.50
2022-09-11T18:06:19.615Z,17.40
2022-09-11T18:09:11.950Z,17.40
2022-09-11T18:12:03.433Z,17.40
2022-09-11T18:14:52.995Z,17.50
2022-09-11T18:17:40.253Z,17.50
2022-09-11T18:20:27.628Z,17.30
2022-09-11T18:23:16.589Z,17.20
2022-09-11T18:26:03.577Z,17.20
2022-09-11T18:28:56.378Z,17.30
2022-09-11T18:31:45.825Z,17.30
2022-09-11T18:34:33.067Z,17.30
2022-09-11T18:37:22.297Z,17.20
2022-09-11T18:40:09.769Z,17.20
2022-09-11T18:42:56.906Z,17.10
2022-09-11T18:45:45.390Z,17.00
2022-09-11T18:48:32.619Z,16.90
2022-09-11T18:51:20.574Z,16.60
2022-09-11T18:54:07.643Z,16.50
2022-09-11T18:56:54.612Z,16.50
2022-09-11T18:59:42.002Z,16.40
2022-09-11T19:02:30.598Z,16.30
2022-09-11T19:05:18.716Z,16.40
2022-09-11T19:08:06.029Z,16.30
2022-09-11T19:10:53.020Z,16.30
2022-09-11T19:13:40.949Z,16.40
2022-09-11T19:16:28.414Z,16.20
2022-09-11T19:19:17.216Z,16.20
2022-09-11T19:22:04.491Z,16.00
2022-09-11T19:24:52.108Z,16.10
2022-09-11T19:27:39.193Z,16.10
2022-09-11T19:30:26.091Z,16.00
2022-09-11T19:33:13.346Z,15.90
2022-09-11T19:36:04.395Z,15.80
2022-09-11T19:38:52.923Z,15.80
2022-09-11T19:41:40.824Z,15.70
2022-09-11T19:44:27.678Z,15.70
2022-09-11T19:47:14.764Z,15.40
2022-09-11T19:50:02.256Z,15.40
2022-09-11T19:52:50.847Z,15.50
2022-09-11T19:55:38.047Z,15.40
2022-09-11T19:58:25.925Z,15.10
2022-09-11T20:01:14.604Z,14.90
2022-09-11T20:04:02.165Z,15.10
2022-09-11T20:09:36.900Z,15.20
2022-09-11T20:12:24.274Z,15.10
2022-09-11T20:15:12.366Z,15.00
2022-09-11T20:18:00.433Z,15.00
2022-09-11T20:20:47.500Z,15.10
2022-09-11T20:23:35.106Z,15.10
2022-09-11T20:26:25.665Z,14.90
2022-09-11T20:29:14.855Z,15.00
2022-09-11T20:32:02.041Z,15.10
2022-09-11T20:34:49.261Z,14.80
2022-09-11T20:37:36.391Z,14.90
2022-09-11T20:40:23.334Z,14.80
2022-09-11T20:43:11.887Z,14.90
2022-09-11T20:46:00.498Z,14.70
2022-09-11T20:48:49.993Z,14.80
2022-09-11T20:51:36.922Z,14.80
2022-09-11T20:54:24.239Z,14.90
2022-09-11T20:57:11.640Z,14.70
2022-09-11T21:00:00.769Z,14.50
2022-09-11T21:02:47.962Z,14.60
2022-09-11T21:05:36.491Z,14.60
2022-09-11T21:08:25.483Z,14.50
2022-09-11T21:11:13.360Z,14.50
2022-09-11T21:14:01.044Z,14.40
2022-09-11T21:16:49.467Z,14.30
2022-09-11T21:19:36.589Z,14.40
2022-09-11T21:22:23.838Z,14.40
2022-09-11T21:25:11.367Z,14.30
2022-09-11T21:27:59.144Z,14.40
2022-09-11T21:30:46.414Z,14.30
2022-09-11T21:33:35.334Z,14.20
2022-09-11T21:36:23.022Z,14.30
2022-09-11T21:39:10.277Z,14.30
2022-09-11T21:41:57.495Z,14.30
2022-09-11T21:44:44.781Z,14.20
2022-09-11T21:47:32.164Z,14.30
2022-09-11T21:50:21.088Z,14.30
2022-09-11T21:53:09.280Z,14.30
2022-09-11T21:55:56.645Z,14.40
2022-09-11T21:58:43.838Z,14.50
2022-09-11T22:01:32.601Z,14.60
2022-09-11T22:04:19.742Z,14.50
2022-09-11T22:07:08.319Z,14.60
2022-09-11T22:09:55.631Z,14.70
2022-09-11T22:12:42.656Z,14.70
2022-09-11T22:15:29.894Z,14.70
2022-09-11T22:18:18.478Z,14.80
2022-09-11T22:21:06.010Z,14.70
2022-09-11T22:23:55.267Z,14.60
2022-09-11T22:26:42.439Z,14.70
2022-09-11T22:29:29.745Z,14.70
2022-09-11T22:32:16.885Z,14.60
2022-09-11T22:35:04.270Z,14.60
2022-09-11T22:37:51.273Z,14.60
2022-09-11T22:40:39.704Z,14.70
2022-09-11T22:43:27.054Z,14.80
2022-09-11T22:46:14.420Z,14.80
2022-09-11T22:49:03.309Z,14.80
2022-09-11T22:51:50.430Z,14.70
2022-09-11T22:54:37.857Z,14.60
2022-09-11T22:57:29.094Z,14.70
2022-09-11T23:00:19.663Z,14.70
2022-09-11T23:03:06.539Z,14.90
2022-09-11T23:06:14.500Z,14.90
2022-09-11T23:09:03.447Z,15.00
2022-09-11T23:11:50.315Z,15.00
2022-09-11T23:14:38.790Z,15.10
2022-09-11T23:17:26.350Z,15.10
2022-09-11T23:20:13.876Z,15.10
2022-09-11T23:23:03.521Z,15.10
2022-09-11T23:25:50.930Z,15.10
2022-09-11T23:28:38.814Z,15.10
2022-09-11T23:31:29.811Z,15.10
2022-09-11T23:34:17.823Z,15.10
2022-09-11T23:37:05.103Z,15.00
2022-09-11T23:39:52.373Z,14.90
2022-09-11T23:42:39.201Z,14.80
2022-09-11T23:45:26.728Z,14.80
2022-09-11T23:48:15.030Z,14.80
2022-09-11T23:51:02.747Z,14.80
2022-09-11T23:53:51.646Z,14.80
2022-09-11T23:56:38.978Z,14.70
2022-09-11T23:59:26.606Z,14.70
